Time;durP1;ratioP1;P1;durP2;ratioP2;P2;SDS_P1;SDS_P2;PMS_P1;PMS_P2;Temp;Humidity;BMP_temperature;BMP_pressure;BME280_temperature;BME280_humidity;BME280_pressure;Samples;Min_cycle;Max_cycle;Signal;HPM_P1;HPM_P2
2023/11/08 00:01:05;;;;;;;5.90;2.80;;;10.50;99.90;;;;;;5082920;28;20460;-86
2023/11/08 00:03:30;;;;;;;3.58;2.17;;;10.50;99.90;;;;;;5071156;28;20541;-87
2023/11/08 00:05:56;;;;;;;4.88;2.17;;;10.50;99.90;;;;;;5069237;28;20167;-86
2023/11/08 00:08:22;;;;;;;3.85;2.50;;;10.50;99.90;;;;;;5079811;28;20028;-87
2023/11/08 00:10:49;;;;;;;3.97;2.67;;;10.40;99.90;;;;;;5081254;28;20075;-86
2023/11/08 00:13:20;;;;;;;3.78;2.30;;;10.50;99.90;;;;;;5083197;28;20036;-87
2023/11/08 00:15:46;;;;;;;3.20;2.25;;;10.40;99.90;;;;;;5107262;28;20004;-86
2023/11/08 00:18:11;;;;;;;4.35;2.55;;;10.40;99.90;;;;;;5098912;28;20628;-86
2023/11/08 00:20:37;;;;;;;4.40;2.83;;;10.40;99.90;;;;;;5094206;28;20025;-86
2023/11/08 00:23:03;;;;;;;5.88;2.63;;;10.40;99.90;;;;;;5077061;28;20028;-86
2023/11/08 00:25:29;;;;;;;6.00;2.47;;;10.30;99.90;;;;;;5094552;28;20028;-86
2023/11/08 00:27:58;;;;;;;4.30;2.42;;;10.30;99.90;;;;;;5073382;28;20399;-87
2023/11/08 00:30:23;;;;;;;6.10;2.60;;;10.30;99.90;;;;;;5080419;28;20194;-86
2023/11/08 00:32:49;;;;;;;3.80;2.00;;;10.30;99.90;;;;;;5094037;28;20448;-86
2023/11/08 00:35:15;;;;;;;3.67;2.15;;;10.30;99.90;;;;;;5074062;28;20044;-86
2023/11/08 00:37:43;;;;;;;4.20;2.28;;;10.30;99.90;;;;;;5073742;28;20456;-87
2023/11/08 00:40:09;;;;;;;3.35;2.20;;;10.30;99.90;;;;;;5084169;28;20024;-86
2023/11/08 00:42:35;;;;;;;3.47;2.20;;;10.30;99.90;;;;;;5093771;28;20020;-87
2023/11/08 00:45:00;;;;;;;4.18;2.30;;;10.20;99.90;;;;;;5093451;28;20099;-86
2023/11/08 00:47:27;;;;;;;3.10;2.22;;;10.20;99.90;;;;;;5093816;28;20024;-86
2023/11/08 00:49:52;;;;;;;4.55;2.53;;;10.20;99.90;;;;;;5093606;28;20044;-87
2023/11/08 00:52:18;;;;;;;4.65;2.13;;;10.20;99.90;;;;;;5063424;28;20040;-87
2023/11/08 00:54:44;;;;;;;3.72;1.90;;;10.20;99.90;;;;;;5062747;28;20028;-87
2023/11/08 00:57:12;;;;;;;2.83;2.10;;;10.20;99.90;;;;;;5086870;28;20375;-86
2023/11/08 00:59:38;;;;;;;6.32;2.10;;;10.20;99.90;;;;;;5088205;28;20021;-86
2023/11/08 01:02:04;;;;;;;3.67;2.60;;;10.20;99.90;;;;;;5093595;28;20073;-87
2023/11/08 01:04:30;;;;;;;4.40;2.58;;;10.20;99.90;;;;;;5085724;28;20016;-86
2023/11/08 01:06:55;;;;;;;3.72;2.25;;;10.20;99.90;;;;;;5075061;28;20021;-86
2023/11/08 01:09:21;;;;;;;3.75;2.20;;;10.20;99.90;;;;;;5056169;28;20032;-88
2023/11/08 01:11:47;;;;;;;4.32;2.40;;;10.20;99.90;;;;;;5088669;28;20036;-87
2023/11/08 01:14:13;;;;;;;5.55;2.75;;;10.20;99.90;;;;;;5093234;28;20357;-86
2023/11/08 01:16:39;;;;;;;3.47;2.40;;;10.20;99.90;;;;;;5093321;28;20028;-86
2023/11/08 01:19:04;;;;;;;3.97;2.50;;;10.20;99.90;;;;;;5089653;28;20035;-86
2023/11/08 01:21:31;;;;;;;4.88;2.70;;;10.20;99.90;;;;;;5076182;28;20035;-86
2023/11/08 01:23:57;;;;;;;4.38;3.05;;;10.20;99.90;;;;;;5093728;28;20051;-87
2023/11/08 01:26:22;;;;;;;3.50;2.38;;;10.20;99.90;;;;;;5094265;28;20472;-87
2023/11/08 01:28:51;;;;;;;4.20;2.17;;;10.20;99.90;;;;;;5076335;28;20115;-86
2023/11/08 01:31:19;;;;;;;5.93;2.45;;;10.20;99.90;;;;;;5075968;28;20105;-87
2023/11/08 01:33:47;;;;;;;3.53;2.30;;;10.20;99.90;;;;;;5094047;28;20043;-86
2023/11/08 01:36:15;;;;;;;3.72;2.45;;;10.20;99.90;;;;;;5076328;28;20028;-86
2023/11/08 01:38:40;;;;;;;5.43;2.63;;;10.20;99.90;;;;;;5090706;28;20028;-85
2023/11/08 01:41:06;;;;;;;5.63;2.45;;;10.10;99.90;;;;;;5073015;28;20044;-86
2023/11/08 01:43:33;;;;;;;2.33;2.08;;;10.20;99.90;;;;;;5092409;28;20419;-89
2023/11/08 01:46:20;;;;;;;3.50;2.22;;;10.10;99.90;;;;;;5115719;28;20012;-86
2023/11/08 01:48:46;;;;;;;3.55;2.38;;;10.10;99.90;;;;;;5101007;28;20013;-86
2023/11/08 01:51:12;;;;;;;3.72;2.00;;;10.10;99.90;;;;;;5080499;28;20020;-84
2023/11/08 01:53:40;;;;;;;5.68;2.50;;;10.10;99.90;;;;;;5096297;28;20036;-87
2023/11/08 01:56:13;;;;;;;4.78;2.35;;;10.10;99.90;;;;;;5093315;28;20025;-87
2023/11/08 01:58:40;;;;;;;3.17;2.00;;;10.10;99.90;;;;;;5089403;28;20032;-87
2023/11/08 02:01:13;;;;;;;4.10;2.20;;;10.10;99.90;;;;;;5090147;28;20348;-87
2023/11/08 02:03:42;;;;;;;4.50;2.80;;;10.10;99.90;;;;;;5092263;28;20487;-87
2023/11/08 02:06:10;;;;;;;4.68;2.15;;;10.20;99.90;;;;;;5092333;28;20025;-87
2023/11/08 02:08:38;;;;;;;3.25;2.03;;;10.10;99.90;;;;;;5076108;28;20484;-88
2023/11/08 02:11:05;;;;;;;2.92;2.22;;;10.20;99.90;;;;;;5093952;28;20402;-87
2023/11/08 02:13:35;;;;;;;3.85;2.25;;;10.20;99.90;;;;;;5080465;28;20039;-87
2023/11/08 02:16:01;;;;;;;4.90;2.40;;;10.30;99.90;;;;;;5081705;28;20440;-86
2023/11/08 02:18:27;;;;;;;5.70;2.80;;;10.20;99.90;;;;;;5072592;28;20025;-86
2023/11/08 02:20:53;;;;;;;5.22;2.30;;;10.30;99.90;;;;;;5072261;28;20029;-87
2023/11/08 02:23:19;;;;;;;3.85;2.50;;;10.30;99.90;;;;;;5088949;28;20052;-87
2023/11/08 02:25:45;;;;;;;6.78;2.80;;;10.30;99.90;;;;;;5055611;28;20052;-88
2023/11/08 02:28:11;;;;;;;5.28;2.67;;;10.30;99.90;;;;;;5080738;28;20032;-87
2023/11/08 02:30:37;;;;;;;5.47;2.60;;;10.40;99.90;;;;;;5093079;28;20111;-87
2023/11/08 02:33:06;;;;;;;5.43;2.90;;;10.40;99.90;;;;;;5092341;28;20127;-86
2023/11/08 02:35:38;;;;;;;3.58;2.47;;;10.40;99.90;;;;;;5092364;28;20021;-87
2023/11/08 02:38:04;;;;;;;;;;;10.40;99.90;;;;;;5076036;28;20032;-88
2023/11/08 02:40:30;;;;;;;6.25;2.65;;;10.40;99.90;;;;;;5087827;28;20267;-87
2023/11/08 02:42:55;;;;;;;4.25;2.67;;;10.40;99.90;;;;;;5072117;28;20024;-86
2023/11/08 02:45:21;;;;;;;5.82;2.92;;;10.40;99.90;;;;;;5076296;28;20016;-86
2023/11/08 02:47:47;;;;;;;6.45;2.72;;;10.40;99.90;;;;;;5091891;28;20035;-87
2023/11/08 02:50:13;;;;;;;5.40;3.10;;;10.40;99.90;;;;;;5071932;28;20056;-87
2023/11/08 02:52:39;;;;;;;7.82;3.80;;;10.40;99.90;;;;;;5071497;28;20037;-87
2023/11/08 02:55:06;;;;;;;5.15;3.40;;;10.40;99.90;;;;;;5075263;28;20059;-86
2023/11/08 02:57:31;;;;;;;3.33;2.90;;;10.40;99.90;;;;;;5075427;28;20070;-86
2023/11/08 02:59:58;;;;;;;9.95;3.70;;;10.40;99.90;;;;;;5092941;28;20059;-86
2023/11/08 03:02:23;;;;;;;6.07;3.75;;;10.30;99.90;;;;;;5092223;28;20021;-87
2023/11/08 03:04:49;;;;;;;6.13;3.50;;;10.30;99.90;;;;;;5092374;28;20034;-87
2023/11/08 03:07:15;;;;;;;7.53;4.10;;;10.30;99.90;;;;;;5088901;28;20052;-88
2023/11/08 03:09:40;;;;;;;6.60;4.20;;;10.30;99.90;;;;;;5076735;28;20021;-87
2023/11/08 03:12:08;;;;;;;7.63;4.38;;;10.30;99.90;;;;;;5055582;28;20139;-87
2023/11/08 03:14:35;;;;;;;5.07;4.18;;;10.30;99.90;;;;;;5083195;28;20028;-86
2023/11/08 03:17:01;;;;;;;6.40;3.90;;;10.30;99.90;;;;;;5082504;28;20096;-87
2023/11/08 03:19:31;;;;;;;7.07;3.75;;;10.30;99.90;;;;;;5094874;28;20028;-88
2023/11/08 03:21:57;;;;;;;7.93;3.70;;;10.30;99.90;;;;;;5100578;28;20005;-89
2023/11/08 03:24:23;;;;;;;4.35;3.38;;;10.30;99.90;;;;;;5083580;28;20028;-88
2023/11/08 03:26:49;;;;;;;5.80;3.33;;;10.30;99.90;;;;;;5092346;28;20088;-88
2023/11/08 03:29:15;;;;;;;4.13;3.20;;;10.30;99.90;;;;;;5083516;28;20024;-88
2023/11/08 03:31:41;;;;;;;6.57;3.13;;;10.30;99.90;;;;;;5095953;28;20039;-87
2023/11/08 03:34:07;;;;;;;5.80;3.50;;;10.30;99.90;;;;;;5096952;28;20060;-87
2023/11/08 03:36:33;;;;;;;8.00;3.88;;;10.30;99.90;;;;;;5092486;28;20494;-88
2023/11/08 03:38:59;;;;;;;6.85;3.50;;;10.30;99.90;;;;;;5075024;28;20021;-86
2023/11/08 03:41:26;;;;;;;5.93;4.15;;;10.30;99.90;;;;;;5093426;28;20459;-86
2023/11/08 03:43:52;;;;;;;4.70;3.50;;;10.20;99.90;;;;;;5093318;28;20021;-88
2023/11/08 03:46:18;;;;;;;5.53;3.45;;;10.20;99.90;;;;;;5087650;28;20111;-87
2023/11/08 03:48:44;;;;;;;5.05;3.47;;;10.20;99.90;;;;;;5094727;28;20125;-87
2023/11/08 03:51:11;;;;;;;6.57;3.65;;;10.20;99.90;;;;;;5094629;28;20029;-87
2023/11/08 03:53:37;;;;;;;6.15;3.05;;;10.10;99.90;;;;;;5094828;28;20059;-87
2023/11/08 03:56:03;;;;;;;5.75;2.90;;;10.10;99.90;;;;;;5077913;28;20052;-87
2023/11/08 03:58:29;;;;;;;5.85;3.83;;;10.10;99.90;;;;;;5065552;28;20425;-86
2023/11/08 04:00:55;;;;;;;4.53;2.85;;;10.10;99.90;;;;;;5077621;28;20028;-88
2023/11/08 04:03:21;;;;;;;3.85;2.65;;;10.10;99.90;;;;;;5078565;28;20430;-87
2023/11/08 04:05:51;;;;;;;6.13;2.88;;;10.10;99.90;;;;;;5096511;28;20032;-87
2023/11/08 04:08:17;;;;;;;4.57;2.72;;;10.10;99.90;;;;;;5095411;28;20032;-89
2023/11/08 04:10:43;;;;;;;5.15;3.17;;;10.10;99.90;;;;;;5094873;28;20114;-88
2023/11/08 04:13:08;;;;;;;5.10;2.70;;;10.10;99.90;;;;;;5089015;28;20447;-86
2023/11/08 04:15:34;;;;;;;8.20;3.25;;;10.20;99.90;;;;;;5057758;28;20031;-86
2023/11/08 04:18:00;;;;;;;5.07;2.33;;;10.20;99.90;;;;;;5074205;28;20024;-86
2023/11/08 04:20:25;;;;;;;4.35;2.90;;;10.20;99.90;;;;;;5074538;28;20108;-86
2023/11/08 04:22:51;;;;;;;4.47;2.80;;;10.20;99.90;;;;;;5074178;28;20040;-88
2023/11/08 04:25:16;;;;;;;5.95;2.78;;;10.30;99.90;;;;;;5087963;28;20383;-86
2023/11/08 04:27:42;;;;;;;3.92;2.80;;;10.30;99.90;;;;;;5095760;28;20024;-88
2023/11/08 04:30:08;;;;;;;4.70;2.65;;;10.30;99.90;;;;;;5091720;28;20035;-88
2023/11/08 04:32:34;;;;;;;5.22;2.40;;;10.20;99.90;;;;;;5095945;28;20036;-88
2023/11/08 04:35:01;;;;;;;5.97;2.42;;;10.30;99.90;;;;;;5094152;28;20069;-87
2023/11/08 04:37:27;;;;;;;3.40;2.03;;;10.20;99.90;;;;;;5077879;28;20036;-86
2023/11/08 04:39:53;;;;;;;4.30;2.00;;;10.20;99.90;;;;;;5057992;28;20063;-87
2023/11/08 04:42:19;;;;;;;4.40;2.30;;;10.20;99.90;;;;;;5086899;28;20060;-87
2023/11/08 04:44:48;;;;;;;3.80;2.33;;;10.20;99.90;;;;;;5077456;28;20085;-87
2023/11/08 04:47:18;;;;;;;3.63;1.92;;;10.20;99.90;;;;;;5082996;28;20083;-86
2023/11/08 04:49:48;;;;;;;6.35;2.30;;;10.20;99.90;;;;;;5079563;28;20044;-88
2023/11/08 04:52:14;;;;;;;6.65;2.47;;;10.20;99.90;;;;;;5097497;28;20024;-86
2023/11/08 04:54:40;;;;;;;6.38;2.38;;;10.20;99.90;;;;;;5113493;28;20016;-86
2023/11/08 04:57:15;;;;;;;4.82;2.08;;;10.20;99.90;;;;;;5118810;28;20012;-88
2023/11/08 04:59:45;;;;;;;5.75;2.30;;;10.20;99.90;;;;;;5102578;28;20020;-87
2023/11/08 05:02:12;;;;;;;3.45;2.15;;;10.20;99.90;;;;;;5091267;28;20082;-87
2023/11/08 05:04:40;;;;;;;5.50;1.98;;;10.20;99.90;;;;;;5089742;28;20051;-87
2023/11/08 05:07:06;;;;;;;4.57;2.00;;;10.20;99.90;;;;;;5093683;28;20109;-88
2023/11/08 05:09:33;;;;;;;3.45;2.00;;;10.20;99.90;;;;;;5094968;28;20035;-86
2023/11/08 05:11:58;;;;;;;4.72;2.10;;;10.20;99.90;;;;;;5072717;28;20085;-86
2023/11/08 05:14:24;;;;;;;4.93;2.20;;;10.10;99.90;;;;;;5083458;28;20103;-86
2023/11/08 05:16:50;;;;;;;6.20;2.00;;;10.10;99.90;;;;;;5076829;28;20028;-87
2023/11/08 05:19:19;;;;;;;3.53;1.83;;;10.10;99.90;;;;;;5084827;28;20032;-87
2023/11/08 05:21:49;;;;;;;3.97;2.38;;;10.10;99.90;;;;;;5073005;28;20021;-86
2023/11/08 05:24:15;;;;;;;3.30;1.92;;;10.10;99.90;;;;;;5061571;28;20027;-86
2023/11/08 05:26:42;;;;;;;2.97;1.83;;;10.10;99.90;;;;;;5093377;28;20427;-87
2023/11/08 05:29:08;;;;;;;4.15;2.08;;;10.00;99.90;;;;;;5094143;28;20024;-87
2023/11/08 05:31:34;;;;;;;4.93;2.28;;;10.10;99.90;;;;;;5093211;28;20043;-87
2023/11/08 05:34:03;;;;;;;2.78;1.98;;;10.00;99.90;;;;;;5076229;28;20032;-87
2023/11/08 05:36:30;;;;;;;4.65;2.13;;;10.00;99.90;;;;;;5066753;28;20024;-86
2023/11/08 05:38:57;;;;;;;4.68;2.10;;;10.10;99.90;;;;;;5064891;28;20024;-86
2023/11/08 05:41:23;;;;;;;4.63;2.00;;;10.00;99.90;;;;;;5073331;28;20024;-87
2023/11/08 05:43:56;;;;;;;3.97;2.05;;;10.10;99.90;;;;;;5075204;28;20028;-86
2023/11/08 05:46:22;;;;;;;4.63;2.03;;;10.10;99.90;;;;;;5092914;28;20028;-86
2023/11/08 05:48:47;;;;;;;3.08;1.50;;;10.00;99.90;;;;;;5071960;28;20115;-87
2023/11/08 05:51:13;;;;;;;4.25;1.98;;;10.00;99.90;;;;;;5075849;28;20050;-86
2023/11/08 05:53:39;;;;;;;4.40;1.75;;;10.00;99.90;;;;;;5075548;28;20040;-86
2023/11/08 05:56:06;;;;;;;5.15;1.75;;;10.00;99.90;;;;;;5092157;28;20428;-86
2023/11/08 05:58:35;;;;;;;2.78;1.13;;;10.00;99.90;;;;;;5094229;28;20085;-86
2023/11/08 06:01:02;;;;;;;6.10;1.65;;;10.00;99.90;;;;;;5092387;28;20468;-87
2023/11/08 06:03:28;;;;;;;3.92;1.58;;;10.00;99.90;;;;;;5084128;28;20056;-86
2023/11/08 06:05:53;;;;;;;3.40;1.48;;;10.00;99.90;;;;;;5086248;28;20381;-86
2023/11/08 06:08:19;;;;;;;4.22;1.85;;;10.00;99.90;;;;;;5072367;28;20025;-86
2023/11/08 06:10:48;;;;;;;6.07;1.33;;;10.00;99.90;;;;;;5089707;28;20028;-87
2023/11/08 06:13:14;;;;;;;3.15;1.50;;;10.00;99.90;;;;;;5072745;28;20120;-87
2023/11/08 06:15:39;;;;;;;2.60;1.50;;;10.00;99.90;;;;;;5073608;28;20114;-86
2023/11/08 06:18:07;;;;;;;4.60;1.80;;;10.00;99.90;;;;;;5094330;28;20463;-87
2023/11/08 06:20:33;;;;;;;2.13;1.30;;;10.00;99.90;;;;;;5093822;28;20031;-87
2023/11/08 06:22:59;;;;;;;3.50;1.45;;;9.90;99.90;;;;;;5116873;28;20008;-87
2023/11/08 06:25:24;;;;;;;3.80;1.60;;;9.90;99.90;;;;;;5096575;28;20032;-87
2023/11/08 06:27:50;;;;;;;3.25;1.55;;;9.90;99.90;;;;;;5100650;28;20009;-86
2023/11/08 06:30:16;;;;;;;2.83;1.30;;;9.90;99.90;;;;;;5093271;28;20028;-87
2023/11/08 06:32:43;;;;;;;4.10;1.60;;;9.90;99.90;;;;;;5076771;28;20036;-88
2023/11/08 06:35:09;;;;;;;5.43;1.55;;;9.90;99.90;;;;;;5076191;28;20483;-87
2023/11/08 06:37:35;;;;;;;2.97;1.60;;;9.80;99.90;;;;;;5093681;28;20502;-86
2023/11/08 06:40:01;;;;;;;2.38;1.30;;;9.80;99.90;;;;;;5066742;28;20029;-86
2023/11/08 06:42:26;;;;;;;4.47;1.58;;;9.90;99.90;;;;;;5071845;28;20029;-86
2023/11/08 06:44:52;;;;;;;4.35;1.83;;;9.90;99.90;;;;;;5072166;28;20025;-86
2023/11/08 06:47:18;;;;;;;3.25;1.48;;;9.80;99.90;;;;;;5090891;28;20027;-86
2023/11/08 06:49:44;;;;;;;5.05;1.60;;;9.90;99.90;;;;;;5092041;28;20365;-87
2023/11/08 06:52:12;;;;;;;4.07;1.85;;;9.90;99.90;;;;;;5093258;28;20476;-88
2023/11/08 06:54:40;;;;;;;5.18;1.88;;;9.80;99.90;;;;;;5079318;28;20024;-87
2023/11/08 06:57:09;;;;;;;4.75;1.25;;;9.80;99.90;;;;;;5096208;28;20020;-86
2023/11/08 06:59:40;;;;;;;3.53;1.63;;;9.80;99.90;;;;;;5095092;28;20020;-86
2023/11/08 07:02:06;;;;;;;4.75;1.60;;;9.80;99.90;;;;;;5090961;28;20024;-86
2023/11/08 07:04:32;;;;;;;4.13;1.63;;;9.80;99.90;;;;;;5059030;28;20028;-87
2023/11/08 07:07:01;;;;;;;5.20;1.58;;;9.80;99.90;;;;;;5084337;28;20020;-86
2023/11/08 07:09:30;;;;;;;3.47;1.85;;;9.80;99.90;;;;;;5059753;28;20067;-87
2023/11/08 07:11:57;;;;;;;4.10;1.70;;;9.80;99.90;;;;;;5095343;28;20052;-85
2023/11/08 07:14:23;;;;;;;4.65;1.55;;;9.80;99.90;;;;;;5095565;28;20027;-87
2023/11/08 07:16:49;;;;;;;3.13;1.45;;;9.80;99.90;;;;;;5077634;28;20017;-87
2023/11/08 07:19:15;;;;;;;3.65;1.65;;;9.70;99.90;;;;;;5065608;28;20016;-86
2023/11/08 07:21:41;;;;;;;5.68;1.50;;;9.70;99.90;;;;;;5075490;28;20487;-86
2023/11/08 07:24:08;;;;;;;3.88;1.80;;;9.80;99.90;;;;;;5075249;28;20031;-85
2023/11/08 07:26:36;;;;;;;3.45;1.30;;;9.70;99.90;;;;;;5092149;28;20028;-86
2023/11/08 07:29:08;;;;;;;5.85;1.85;;;9.70;99.90;;;;;;5093226;28;20039;-86
2023/11/08 07:31:36;;;;;;;4.15;1.63;;;9.70;99.90;;;;;;5090550;28;20040;-87
2023/11/08 07:34:02;;;;;;;2.63;1.50;;;9.70;99.90;;;;;;5095792;28;20126;-87
2023/11/08 07:36:29;;;;;;;4.10;1.40;;;9.70;99.90;;;;;;5095133;28;20032;-86
2023/11/08 07:38:56;;;;;;;3.33;1.45;;;9.70;99.90;;;;;;5095704;28;20021;-87
2023/11/08 07:41:23;;;;;;;4.75;1.50;;;9.70;99.90;;;;;;5096673;28;20077;-87
2023/11/08 07:43:48;;;;;;;2.80;1.48;;;9.70;99.90;;;;;;5096500;28;20052;-87
2023/11/08 07:46:14;;;;;;;3.13;1.20;;;9.70;99.90;;;;;;5088689;28;20059;-86
2023/11/08 07:48:40;;;;;;;4.95;1.45;;;9.70;99.90;;;;;;5058636;28;20028;-87
2023/11/08 07:51:08;;;;;;;4.60;1.77;;;9.80;99.90;;;;;;5084193;28;20353;-86
2023/11/08 07:53:35;;;;;;;6.45;1.60;;;9.70;99.90;;;;;;5102755;28;20085;-86
2023/11/08 07:56:00;;;;;;;2.80;1.55;;;9.80;99.90;;;;;;5096458;28;20027;-85
2023/11/08 07:58:26;;;;;;;3.40;1.50;;;9.70;99.90;;;;;;5102099;28;20052;-85
2023/11/08 08:00:52;;;;;;;5.90;1.70;;;9.70;99.90;;;;;;5103563;28;20047;-86
2023/11/08 08:03:19;;;;;;;3.47;1.48;;;9.80;99.90;;;;;;5074140;28;20081;-86
2023/11/08 08:05:45;;;;;;;5.97;1.67;;;9.70;99.90;;;;;;5077961;28;20031;-86
2023/11/08 08:08:14;;;;;;;3.97;1.60;;;9.80;99.90;;;;;;5077900;28;20066;-86
2023/11/08 08:10:44;;;;;;;4.72;1.90;;;9.80;99.90;;;;;;5096020;28;20036;-86
2023/11/08 08:13:11;;;;;;;3.45;2.03;;;9.80;99.90;;;;;;5094964;28;20047;-87
2023/11/08 08:15:36;;;;;;;5.32;1.77;;;9.80;99.90;;;;;;5094084;28;20066;-86
2023/11/08 08:18:04;;;;;;;4.82;1.90;;;9.80;99.90;;;;;;5094411;28;20117;-86
2023/11/08 08:20:30;;;;;;;3.78;1.60;;;9.80;99.90;;;;;;5086926;28;20411;-86
2023/11/08 08:22:56;;;;;;;3.42;1.73;;;9.80;99.90;;;;;;5075146;28;20024;-87
2023/11/08 08:25:22;;;;;;;2.83;1.80;;;9.80;99.90;;;;;;5094439;28;20030;-86
2023/11/08 08:27:48;;;;;;;3.50;1.67;;;9.70;99.90;;;;;;5094352;28;20353;-86
2023/11/08 08:30:14;;;;;;;5.13;2.22;;;9.70;99.90;;;;;;5090683;28;20043;-86
2023/11/08 08:32:47;;;;;;;3.47;1.63;;;9.80;99.90;;;;;;5094224;28;20033;-86
2023/11/08 08:35:13;;;;;;;4.57;2.10;;;9.80;99.90;;;;;;5073951;28;20024;-85
2023/11/08 08:37:42;;;;;;;4.65;1.83;;;9.80;99.90;;;;;;5090689;28;20115;-87
2023/11/08 08:40:10;;;;;;;4.63;2.20;;;9.90;99.90;;;;;;5094178;28;20074;-86
2023/11/08 08:42:40;;;;;;;3.83;1.90;;;9.80;99.90;;;;;;5061279;28;20032;-86
2023/11/08 08:45:10;;;;;;;5.82;2.55;;;9.90;99.90;;;;;;5091081;28;20460;-86
2023/11/08 08:47:37;;;;;;;5.50;2.10;;;9.90;99.90;;;;;;5093766;28;20031;-86
2023/11/08 08:50:04;;;;;;;4.80;2.60;;;9.90;99.90;;;;;;5093802;28;20491;-86
2023/11/08 08:52:30;;;;;;;5.03;2.15;;;9.90;99.90;;;;;;5063772;28;20182;-86
2023/11/08 08:54:55;;;;;;;3.55;1.95;;;9.90;99.90;;;;;;5078197;28;20457;-86
2023/11/08 08:57:22;;;;;;;5.30;2.20;;;10.00;99.90;;;;;;5076560;28;20050;-86
2023/11/08 08:59:48;;;;;;;6.28;1.92;;;10.00;99.90;;;;;;5093976;28;20079;-86
2023/11/08 09:02:14;;;;;;;5.03;2.40;;;10.00;99.90;;;;;;5093398;28;20024;-86
2023/11/08 09:04:42;;;;;;;4.68;2.15;;;10.10;99.90;;;;;;5058280;28;20052;-86
2023/11/08 09:07:08;;;;;;;3.90;2.10;;;10.10;99.90;;;;;;5086525;28;20471;-86
2023/11/08 09:09:33;;;;;;;5.40;2.28;;;10.20;99.90;;;;;;5056458;28;20112;-86
2023/11/08 09:11:59;;;;;;;5.63;2.38;;;10.20;99.90;;;;;;5073216;28;20029;-86
2023/11/08 09:14:25;;;;;;;4.15;1.83;;;10.20;99.90;;;;;;5073471;28;20037;-86
2023/11/08 09:16:51;;;;;;;4.68;1.90;;;10.30;99.90;;;;;;5074010;28;20024;-86
2023/11/08 09:19:17;;;;;;;4.63;1.92;;;10.30;99.90;;;;;;5092649;28;20111;-86
2023/11/08 09:21:44;;;;;;;3.60;1.90;;;10.30;99.90;;;;;;5093309;28;20023;-86
2023/11/08 09:24:10;;;;;;;5.85;2.40;;;10.40;99.90;;;;;;5098140;28;20024;-86
2023/11/08 09:26:37;;;;;;;5.00;2.15;;;10.40;99.90;;;;;;5100670;28;20016;-87
2023/11/08 09:29:03;;;;;;;5.18;1.70;;;10.50;99.90;;;;;;5107683;28;20052;-86
2023/11/08 09:31:32;;;;;;;4.10;2.03;;;10.50;99.90;;;;;;5097643;28;20005;-88
2023/11/08 09:33:59;;;;;;;4.82;2.70;;;10.60;99.90;;;;;;5094142;28;20060;-86
2023/11/08 09:36:28;;;;;;;5.57;2.58;;;10.60;99.90;;;;;;5098100;28;20024;-89
2023/11/08 09:38:54;;;;;;;7.10;2.67;;;10.70;99.90;;;;;;5104059;28;20020;-86
2023/11/08 09:41:21;;;;;;;6.18;2.70;;;10.70;99.90;;;;;;5076386;28;20024;-85
2023/11/08 09:43:49;;;;;;;6.20;2.35;;;10.70;99.90;;;;;;5087899;28;20051;-86
2023/11/08 09:46:16;;;;;;;3.97;2.30;;;10.80;99.90;;;;;;5074819;28;20028;-87
2023/11/08 09:48:45;;;;;;;5.38;2.10;;;10.80;99.90;;;;;;5089114;28;20036;-86
2023/11/08 09:51:13;;;;;;;4.80;2.22;;;10.80;99.90;;;;;;5089466;28;20024;-87
2023/11/08 09:53:39;;;;;;;6.45;2.33;;;10.90;99.90;;;;;;5092761;28;20039;-86
2023/11/08 09:56:06;;;;;;;5.22;2.40;;;10.90;99.90;;;;;;5076070;28;20027;-87
2023/11/08 09:58:32;;;;;;;5.47;2.50;;;10.90;99.90;;;;;;5075955;28;20028;-86
2023/11/08 10:01:00;;;;;;;5.40;2.47;;;11.00;99.90;;;;;;5092657;28;20058;-87
2023/11/08 10:03:27;;;;;;;4.93;1.90;;;11.00;99.90;;;;;;5080471;28;20028;-87
2023/11/08 10:05:53;;;;;;;5.78;2.10;;;11.10;99.90;;;;;;5056439;28;20063;-86
2023/11/08 10:08:19;;;;;;;6.00;2.30;;;11.20;99.90;;;;;;5092895;28;20107;-86
2023/11/08 10:10:48;;;;;;;5.82;2.60;;;11.20;99.90;;;;;;5092393;28;20048;-86
2023/11/08 10:13:15;;;;;;;4.90;1.80;;;11.20;99.90;;;;;;5092318;28;20036;-87
2023/11/08 10:15:41;;;;;;;5.22;2.30;;;11.30;99.90;;;;;;5092609;28;20440;-87
2023/11/08 10:18:08;;;;;;;4.07;2.05;;;11.30;99.90;;;;;;5092475;28;20524;-86
2023/11/08 10:20:37;;;;;;;5.03;2.08;;;11.30;99.90;;;;;;5084446;28;20050;-87
2023/11/08 10:23:06;;;;;;;6.68;2.05;;;11.40;99.90;;;;;;5073447;28;20035;-87
2023/11/08 10:25:32;;;;;;;6.50;1.70;;;11.40;99.90;;;;;;5082394;28;20031;-87
2023/11/08 10:28:06;;;;;;;8.27;2.15;;;11.50;99.90;;;;;;5092507;28;20503;-86
2023/11/08 10:30:35;;;;;;;5.13;1.98;;;11.50;99.90;;;;;;5085937;28;20031;-87
2023/11/08 10:33:11;;;;;;;4.43;1.85;;;11.60;99.90;;;;;;5070069;28;20043;-86
2023/11/08 10:35:43;;;;;;;3.15;1.70;;;11.60;99.90;;;;;;5097589;28;20074;-86
2023/11/08 10:38:14;;;;;;;3.80;2.20;;;11.70;99.90;;;;;;5096522;28;20026;-87
2023/11/08 10:40:44;;;;;;;;;;;11.70;99.90;;;;;;5097972;28;20038;-86
2023/11/08 10:43:21;;;;;;;5.57;1.65;;;11.70;99.90;;;;;;5113412;28;19904;-86
2023/11/08 10:45:52;;;;;;;5.70;1.75;;;11.70;99.90;;;;;;5097355;28;20024;-86
2023/11/08 10:48:21;;;;;;;;;;;11.70;99.90;;;;;;5097143;28;20032;-87
2023/11/08 10:50:49;;;;;;;7.03;1.83;;;11.70;99.90;;;;;;5096349;28;19916;-86
2023/11/08 10:53:15;;;;;;;5.30;1.65;;;11.70;99.90;;;;;;5082532;28;20036;-87
2023/11/08 10:55:41;;;;;;;4.30;1.90;;;11.70;99.90;;;;;;5097755;28;20108;-86
2023/11/08 10:58:08;;;;;;;5.57;2.15;;;11.70;99.90;;;;;;5083402;28;20050;-86
2023/11/08 11:00:35;;;;;;;4.68;2.03;;;11.70;99.90;;;;;;5105282;28;20049;-87
2023/11/08 11:03:11;;;;;;;3.28;1.67;;;11.70;99.90;;;;;;5121118;28;20031;-85
2023/11/08 11:05:42;;;;;;;3.92;1.83;;;11.70;99.90;;;;;;5121508;28;20008;-88
2023/11/08 11:08:08;;;;;;;4.70;1.92;;;11.70;99.90;;;;;;5109474;28;20025;-87
2023/11/08 11:10:34;;;;;;;4.03;1.63;;;11.80;99.90;;;;;;5077757;28;20166;-87
2023/11/08 11:13:03;;;;;;;3.20;1.30;;;11.80;99.90;;;;;;5059503;28;20449;-87
2023/11/08 11:15:49;;;;;;;5.07;1.83;;;11.80;99.90;;;;;;5089279;28;20528;-86
2023/11/08 11:18:22;;;;;;;3.85;1.67;;;11.80;99.90;;;;;;5095789;28;20047;-87
2023/11/08 11:20:54;;;;;;;6.97;2.05;;;11.80;99.90;;;;;;5095533;28;20120;-87
2023/11/08 11:23:41;;;;;;;6.03;2.00;;;11.90;99.90;;;;;;5092078;28;20089;-87
2023/11/08 11:26:10;;;;;;;5.93;1.70;;;11.90;99.90;;;;;;5078927;28;20028;-88
2023/11/08 11:28:52;;;;;;;4.00;1.80;;;11.90;99.90;;;;;;5078876;28;20367;-87
2023/11/08 11:31:38;;;;;;;5.43;1.67;;;11.90;99.90;;;;;;5079080;28;20028;-87
2023/11/08 11:34:26;;;;;;;5.85;2.20;;;11.90;99.90;;;;;;5096559;28;20039;-86
2023/11/08 11:37:10;;;;;;;2.90;1.50;;;11.90;99.90;;;;;;5092603;28;20120;-87
2023/11/08 11:40:03;;;;;;;3.88;1.52;;;11.90;99.90;;;;;;5075286;28;20086;-87
2023/11/08 11:42:29;;;;;;;5.22;1.58;;;11.90;99.90;;;;;;5080654;28;20527;-87
2023/11/08 11:44:59;;;;;;;6.22;2.13;;;12.00;99.90;;;;;;5075025;28;20060;-86
2023/11/08 11:47:30;;;;;;;5.88;1.85;;;11.90;99.90;;;;;;5078260;28;20115;-87
2023/11/08 11:50:02;;;;;;;5.28;1.80;;;12.00;99.90;;;;;;5094685;28;20093;-87
2023/11/08 11:52:30;;;;;;;5.20;1.85;;;12.00;99.90;;;;;;5096369;28;20032;-87
2023/11/08 11:54:57;;;;;;;7.00;1.90;;;12.10;99.90;;;;;;5078324;28;20020;-87
2023/11/08 11:57:24;;;;;;;4.45;1.50;;;12.10;99.90;;;;;;5094468;28;20375;-87
2023/11/08 11:59:52;;;;;;;3.83;1.67;;;12.10;99.90;;;;;;5094548;28;20040;-87
2023/11/08 12:02:24;;;;;;;5.07;1.42;;;12.10;99.90;;;;;;5094956;28;20028;-87
2023/11/08 12:04:50;;;;;;;3.50;1.83;;;12.10;99.90;;;;;;5094708;28;20051;-87
2023/11/08 12:07:17;;;;;;;6.50;1.77;;;12.10;99.90;;;;;;5095080;28;20024;-87
2023/11/08 12:09:45;;;;;;;6.05;1.65;;;12.10;99.90;;;;;;5094898;28;20452;-87
2023/11/08 12:12:11;;;;;;;4.03;1.30;;;12.10;99.90;;;;;;5094699;28;20035;-88
2023/11/08 12:14:47;;;;;;;3.67;1.30;;;12.20;99.90;;;;;;5094833;28;20024;-87
2023/11/08 12:17:13;;;;;;;3.45;1.35;;;12.20;99.90;;;;;;5095848;28;20020;-87
2023/11/08 12:19:39;;;;;;;4.55;1.38;;;12.20;99.90;;;;;;5095932;28;20024;-87
2023/11/08 12:22:05;;;;;;;3.95;1.63;;;12.30;99.90;;;;;;5093942;28;20024;-87
2023/11/08 12:24:37;;;;;;;5.03;1.63;;;12.20;99.90;;;;;;5094491;28;20020;-86
2023/11/08 12:27:04;;;;;;;3.83;1.40;;;12.30;99.90;;;;;;5094684;28;20028;-87
2023/11/08 12:29:31;;;;;;;5.22;1.38;;;12.40;99.90;;;;;;5094246;28;20028;-87
2023/11/08 12:31:57;;;;;;;3.92;1.27;;;12.40;99.90;;;;;;5094328;28;20059;-87
2023/11/08 12:34:25;;;;;;;4.20;1.60;;;12.40;99.90;;;;;;5100378;28;20023;-86
2023/11/08 12:36:52;;;;;;;3.17;1.20;;;12.40;99.90;;;;;;5105624;28;20035;-87
2023/11/08 12:39:25;;;;;;;3.42;1.60;;;12.40;99.90;;;;;;5098589;28;20035;-87
2023/11/08 12:41:55;;;;;;;5.60;1.40;;;12.40;99.90;;;;;;5109424;28;20070;-87
2023/11/08 12:44:24;;;;;;;4.25;1.42;;;12.40;99.90;;;;;;5105922;28;20094;-87
2023/11/08 12:46:55;;;;;;;2.95;1.42;;;12.40;99.90;;;;;;5063640;28;20040;-86
2023/11/08 12:49:33;;;;;;;4.55;1.52;;;12.40;99.90;;;;;;5085863;28;20130;-86
2023/11/08 12:52:06;;;;;;;4.60;1.90;;;12.50;99.90;;;;;;5093980;28;20048;-87